sensor_id;sensor_type;location;lat;lon;timestamp;P1;durP1;ratioP1;P2;durP2;ratioP2
34499;SDS011;20745;50.882;6.962;2023-02-01T00:02:22;26.70;;;9.05;;
34499;SDS011;20745;50.882;6.962;2023-02-01T00:04:48;31.17;;;9.25;;
34499;SDS011;20745;50.882;6.962;2023-02-01T00:07:15;24.38;;;8.38;;
34499;SDS011;20745;50.882;6.962;2023-02-01T00:09:41;31.33;;;9.68;;
34499;SDS011;20745;50.882;6.962;2023-02-01T00:12:08;26.48;;;8.70;;
34499;SDS011;20745;50.882;6.962;2023-02-01T00:14:34;26.08;;;8.75;;
34499;SDS011;20745;50.882;6.962;2023-02-01T00:17:07;27.30;;;9.10;;
34499;SDS011;20745;50.882;6.962;2023-02-01T00:22:00;31.73;;;10.45;;
34499;SDS011;20745;50.882;6.962;2023-02-01T00:24:27;30.88;;;10.13;;
34499;SDS011;20745;50.882;6.962;2023-02-01T00:26:53;29.35;;;9.52;;
34499;SDS011;20745;50.882;6.962;2023-02-01T00:29:20;29.83;;;10.02;;
34499;SDS011;20745;50.882;6.962;2023-02-01T00:31:49;28.67;;;10.02;;
34499;SDS011;20745;50.882;6.962;2023-02-01T00:36:43;32.58;;;10.40;;
34499;SDS011;20745;50.882;6.962;2023-02-01T00:39:10;30.58;;;9.55;;
34499;SDS011;20745;50.882;6.962;2023-02-01T00:41:37;33.17;;;9.38;;
34499;SDS011;20745;50.882;6.962;2023-02-01T00:44:04;31.13;;;8.93;;
34499;SDS011;20745;50.882;6.962;2023-02-01T00:46:31;25.20;;;8.77;;
34499;SDS011;20745;50.882;6.962;2023-02-01T00:48:58;26.50;;;8.70;;
34499;SDS011;20745;50.882;6.962;2023-02-01T00:51:25;26.58;;;8.15;;
34499;SDS011;20745;50.882;6.962;2023-02-01T00:53:54;34.40;;;8.27;;
34499;SDS011;20745;50.882;6.962;2023-02-01T00:56:21;31.73;;;7.25;;
34499;SDS011;20745;50.882;6.962;2023-02-01T00:58:48;28.33;;;7.95;;
34499;SDS011;20745;50.882;6.962;2023-02-01T01:01:19;22.42;;;6.55;;
34499;SDS011;20745;50.882;6.962;2023-02-01T01:03:51;20.92;;;5.88;;
34499;SDS011;20745;50.882;6.962;2023-02-01T01:06:20;21.90;;;5.88;;
34499;SDS011;20745;50.882;6.962;2023-02-01T01:08:50;27.08;;;5.85;;
34499;SDS011;20745;50.882;6.962;2023-02-01T01:11:19;25.20;;;5.05;;
34499;SDS011;20745;50.882;6.962;2023-02-01T01:13:47;21.33;;;5.55;;
34499;SDS011;20745;50.882;6.962;2023-02-01T01:16:16;22.27;;;4.40;;
34499;SDS011;20745;50.882;6.962;2023-02-01T01:18:44;22.55;;;5.57;;
34499;SDS011;20745;50.882;6.962;2023-02-01T01:21:11;21.90;;;4.80;;
34499;SDS011;20745;50.882;6.962;2023-02-01T01:23:39;31.15;;;5.20;;
34499;SDS011;20745;50.882;6.962;2023-02-01T01:26:07;23.85;;;5.43;;
34499;SDS011;20745;50.882;6.962;2023-02-01T01:28:34;24.05;;;4.88;;
34499;SDS011;20745;50.882;6.962;2023-02-01T01:31:01;20.40;;;4.28;;
34499;SDS011;20745;50.882;6.962;2023-02-01T01:33:28;25.40;;;5.30;;
34499;SDS011;20745;50.882;6.962;2023-02-01T01:35:55;19.17;;;4.43;;
34499;SDS011;20745;50.882;6.962;2023-02-01T01:38:21;27.75;;;5.50;;
34499;SDS011;20745;50.882;6.962;2023-02-01T01:40:48;28.95;;;4.93;;
34499;SDS011;20745;50.882;6.962;2023-02-01T01:43:19;26.80;;;4.70;;
34499;SDS011;20745;50.882;6.962;2023-02-01T01:45:49;22.08;;;4.13;;
34499;SDS011;20745;50.882;6.962;2023-02-01T01:48:26;24.20;;;4.85;;
34499;SDS011;20745;50.882;6.962;2023-02-01T01:50:57;17.35;;;3.42;;
34499;SDS011;20745;50.882;6.962;2023-02-01T01:53:33;21.63;;;4.32;;
34499;SDS011;20745;50.882;6.962;2023-02-01T01:56:07;26.40;;;4.95;;
34499;SDS011;20745;50.882;6.962;2023-02-01T01:58:34;19.45;;;4.85;;
34499;SDS011;20745;50.882;6.962;2023-02-01T02:01:00;23.77;;;4.60;;
34499;SDS011;20745;50.882;6.962;2023-02-01T02:03:30;19.00;;;4.03;;
34499;SDS011;20745;50.882;6.962;2023-02-01T02:06:02;26.73;;;4.30;;
34499;SDS011;20745;50.882;6.962;2023-02-01T02:08:31;24.27;;;4.90;;
34499;SDS011;20745;50.882;6.962;2023-02-01T02:10:58;26.83;;;5.00;;
34499;SDS011;20745;50.882;6.962;2023-02-01T02:13:29;21.92;;;5.15;;
34499;SDS011;20745;50.882;6.962;2023-02-01T02:16:26;21.63;;;4.72;;
34499;SDS011;20745;50.882;6.962;2023-02-01T02:30:44;30.42;;;7.50;;
34499;SDS011;20745;50.882;6.962;2023-02-01T02:33:38;31.48;;;7.32;;
34499;SDS011;20745;50.882;6.962;2023-02-01T02:39:32;25.63;;;6.78;;
34499;SDS011;20745;50.882;6.962;2023-02-01T02:45:30;24.88;;;6.63;;
34499;SDS011;20745;50.882;6.962;2023-02-01T02:48:18;29.05;;;6.50;;
34499;SDS011;20745;50.882;6.962;2023-02-01T02:51:34;27.23;;;6.28;;
34499;SDS011;20745;50.882;6.962;2023-02-01T02:54:13;24.02;;;5.93;;
34499;SDS011;20745;50.882;6.962;2023-02-01T02:57:03;28.05;;;6.30;;
34499;SDS011;20745;50.882;6.962;2023-02-01T02:59:52;22.98;;;5.78;;
34499;SDS011;20745;50.882;6.962;2023-02-01T03:02:38;31.15;;;5.88;;
34499;SDS011;20745;50.882;6.962;2023-02-01T03:05:24;24.15;;;6.40;;
34499;SDS011;20745;50.882;6.962;2023-02-01T03:08:01;28.05;;;6.32;;
34499;SDS011;20745;50.882;6.962;2023-02-01T03:13:13;24.83;;;5.97;;
34499;SDS011;20745;50.882;6.962;2023-02-01T03:19:19;27.90;;;5.90;;
34499;SDS011;20745;50.882;6.962;2023-02-01T03:21:59;23.25;;;6.65;;
34499;SDS011;20745;50.882;6.962;2023-02-01T03:24:31;27.77;;;5.82;;
34499;SDS011;20745;50.882;6.962;2023-02-01T03:27:18;33.63;;;6.10;;
34499;SDS011;20745;50.882;6.962;2023-02-01T03:32:36;29.02;;;5.68;;
34499;SDS011;20745;50.882;6.962;2023-02-01T03:41:03;31.52;;;6.03;;
34499;SDS011;20745;50.882;6.962;2023-02-01T03:43:58;26.05;;;5.60;;
34499;SDS011;20745;50.882;6.962;2023-02-01T03:46:57;32.03;;;6.10;;
34499;SDS011;20745;50.882;6.962;2023-02-01T03:49:30;28.55;;;5.38;;
34499;SDS011;20745;50.882;6.962;2023-02-01T03:52:00;32.65;;;6.47;;
34499;SDS011;20745;50.882;6.962;2023-02-01T03:54:29;24.92;;;6.15;;
34499;SDS011;20745;50.882;6.962;2023-02-01T03:56:59;25.35;;;6.05;;
34499;SDS011;20745;50.882;6.962;2023-02-01T03:59:29;34.58;;;6.28;;
34499;SDS011;20745;50.882;6.962;2023-02-01T04:01:56;34.00;;;7.03;;
34499;SDS011;20745;50.882;6.962;2023-02-01T04:04:22;27.75;;;6.75;;
34499;SDS011;20745;50.882;6.962;2023-02-01T04:06:49;26.67;;;6.18;;
34499;SDS011;20745;50.882;6.962;2023-02-01T04:09:16;25.98;;;5.80;;
34499;SDS011;20745;50.882;6.962;2023-02-01T04:11:43;27.60;;;5.85;;
34499;SDS011;20745;50.882;6.962;2023-02-01T04:14:10;25.63;;;5.97;;
34499;SDS011;20745;50.882;6.962;2023-02-01T04:16:36;24.35;;;6.20;;
34499;SDS011;20745;50.882;6.962;2023-02-01T04:19:03;28.40;;;6.10;;
34499;SDS011;20745;50.882;6.962;2023-02-01T04:21:29;33.00;;;7.07;;
34499;SDS011;20745;50.882;6.962;2023-02-01T04:23:56;33.88;;;6.38;;
34499;SDS011;20745;50.882;6.962;2023-02-01T04:26:22;27.52;;;5.93;;
34499;SDS011;20745;50.882;6.962;2023-02-01T04:28:49;26.88;;;6.05;;
34499;SDS011;20745;50.882;6.962;2023-02-01T04:31:17;33.88;;;7.03;;
34499;SDS011;20745;50.882;6.962;2023-02-01T04:33:44;29.88;;;6.10;;
34499;SDS011;20745;50.882;6.962;2023-02-01T04:36:10;31.17;;;5.80;;
34499;SDS011;20745;50.882;6.962;2023-02-01T04:38:37;32.35;;;5.80;;
34499;SDS011;20745;50.882;6.962;2023-02-01T04:41:03;34.75;;;6.82;;
34499;SDS011;20745;50.882;6.962;2023-02-01T04:43:30;28.63;;;6.38;;
34499;SDS011;20745;50.882;6.962;2023-02-01T04:45:56;31.13;;;6.70;;
34499;SDS011;20745;50.882;6.962;2023-02-01T04:48:23;29.05;;;5.80;;
34499;SDS011;20745;50.882;6.962;2023-02-01T04:50:50;29.65;;;6.30;;
34499;SDS011;20745;50.882;6.962;2023-02-01T04:53:17;27.65;;;5.63;;
34499;SDS011;20745;50.882;6.962;2023-02-01T04:55:44;30.73;;;6.28;;
34499;SDS011;20745;50.882;6.962;2023-02-01T04:58:11;30.67;;;6.22;;
34499;SDS011;20745;50.882;6.962;2023-02-01T05:00:37;23.38;;;5.30;;
34499;SDS011;20745;50.882;6.962;2023-02-01T05:03:04;21.05;;;5.50;;
34499;SDS011;20745;50.882;6.962;2023-02-01T05:05:31;27.50;;;5.35;;
34499;SDS011;20745;50.882;6.962;2023-02-01T05:07:57;29.10;;;5.63;;
34499;SDS011;20745;50.882;6.962;2023-02-01T05:10:24;25.83;;;5.88;;
34499;SDS011;20745;50.882;6.962;2023-02-01T05:12:50;30.85;;;5.88;;
34499;SDS011;20745;50.882;6.962;2023-02-01T05:15:36;29.73;;;5.55;;
34499;SDS011;20745;50.882;6.962;2023-02-01T05:18:02;27.15;;;5.18;;
34499;SDS011;20745;50.882;6.962;2023-02-01T05:20:29;25.52;;;4.82;;
34499;SDS011;20745;50.882;6.962;2023-02-01T05:22:55;27.35;;;5.15;;
34499;SDS011;20745;50.882;6.962;2023-02-01T05:25:22;34.75;;;5.88;;
34499;SDS011;20745;50.882;6.962;2023-02-01T05:27:49;26.73;;;4.85;;
34499;SDS011;20745;50.882;6.962;2023-02-01T05:30:15;28.08;;;5.07;;
34499;SDS011;20745;50.882;6.962;2023-02-01T05:32:42;29.50;;;4.88;;
34499;SDS011;20745;50.882;6.962;2023-02-01T05:35:08;25.67;;;4.72;;
34499;SDS011;20745;50.882;6.962;2023-02-01T05:37:35;31.40;;;4.93;;
34499;SDS011;20745;50.882;6.962;2023-02-01T05:40:02;24.65;;;4.65;;
34499;SDS011;20745;50.882;6.962;2023-02-01T05:42:29;29.35;;;4.88;;
34499;SDS011;20745;50.882;6.962;2023-02-01T05:44:55;30.05;;;4.72;;
34499;SDS011;20745;50.882;6.962;2023-02-01T05:47:22;28.80;;;5.50;;
34499;SDS011;20745;50.882;6.962;2023-02-01T05:49:48;34.50;;;4.65;;
34499;SDS011;20745;50.882;6.962;2023-02-01T05:52:15;25.10;;;4.28;;
34499;SDS011;20745;50.882;6.962;2023-02-01T05:54:45;33.97;;;5.15;;
34499;SDS011;20745;50.882;6.962;2023-02-01T05:57:13;27.02;;;4.50;;
34499;SDS011;20745;50.882;6.962;2023-02-01T05:59:40;28.58;;;4.35;;
34499;SDS011;20745;50.882;6.962;2023-02-01T06:02:07;25.63;;;4.30;;
34499;SDS011;20745;50.882;6.962;2023-02-01T06:04:36;27.13;;;4.27;;
34499;SDS011;20745;50.882;6.962;2023-02-01T06:07:02;24.73;;;3.85;;
34499;SDS011;20745;50.882;6.962;2023-02-01T06:09:29;32.30;;;4.68;;
34499;SDS011;20745;50.882;6.962;2023-02-01T06:11:55;28.88;;;5.35;;
34499;SDS011;20745;50.882;6.962;2023-02-01T06:14:22;25.25;;;4.55;;
34499;SDS011;20745;50.882;6.962;2023-02-01T06:16:48;26.25;;;4.20;;
34499;SDS011;20745;50.882;6.962;2023-02-01T06:19:15;24.55;;;4.00;;
34499;SDS011;20745;50.882;6.962;2023-02-01T06:21:41;23.25;;;4.32;;
34499;SDS011;20745;50.882;6.962;2023-02-01T06:24:08;23.33;;;4.10;;
34499;SDS011;20745;50.882;6.962;2023-02-01T06:26:34;19.75;;;3.88;;
34499;SDS011;20745;50.882;6.962;2023-02-01T06:29:02;31.02;;;5.10;;
34499;SDS011;20745;50.882;6.962;2023-02-01T06:31:28;27.92;;;4.82;;
34499;SDS011;20745;50.882;6.962;2023-02-01T06:33:55;29.27;;;4.20;;
34499;SDS011;20745;50.882;6.962;2023-02-01T06:36:21;28.50;;;4.45;;
34499;SDS011;20745;50.882;6.962;2023-02-01T06:38:48;28.17;;;4.90;;
34499;SDS011;20745;50.882;6.962;2023-02-01T06:41:14;34.85;;;4.78;;
34499;SDS011;20745;50.882;6.962;2023-02-01T06:43:42;27.20;;;4.35;;
34499;SDS011;20745;50.882;6.962;2023-02-01T06:46:11;26.83;;;4.28;;
34499;SDS011;20745;50.882;6.962;2023-02-01T06:48:38;23.35;;;4.18;;
34499;SDS011;20745;50.882;6.962;2023-02-01T06:51:05;29.95;;;5.63;;
34499;SDS011;20745;50.882;6.962;2023-02-01T06:53:32;27.85;;;4.85;;
34499;SDS011;20745;50.882;6.962;2023-02-01T06:56:01;28.58;;;5.07;;
34499;SDS011;20745;50.882;6.962;2023-02-01T06:58:29;24.33;;;4.65;;
34499;SDS011;20745;50.882;6.962;2023-02-01T07:00:57;19.83;;;3.97;;
34499;SDS011;20745;50.882;6.962;2023-02-01T07:03:25;32.03;;;5.20;;
34499;SDS011;20745;50.882;6.962;2023-02-01T07:05:54;29.80;;;5.05;;
34499;SDS011;20745;50.882;6.962;2023-02-01T07:08:22;25.73;;;4.57;;
34499;SDS011;20745;50.882;6.962;2023-02-01T07:10:49;27.38;;;4.80;;
34499;SDS011;20745;50.882;6.962;2023-02-01T07:13:15;29.95;;;4.82;;
34499;SDS011;20745;50.882;6.962;2023-02-01T07:15:42;24.85;;;4.65;;
34499;SDS011;20745;50.882;6.962;2023-02-01T07:18:08;25.48;;;4.32;;
34499;SDS011;20745;50.882;6.962;2023-02-01T07:20:35;21.95;;;4.20;;
34499;SDS011;20745;50.882;6.962;2023-02-01T07:23:01;28.88;;;4.60;;
34499;SDS011;20745;50.882;6.962;2023-02-01T07:25:27;33.38;;;5.20;;
34499;SDS011;20745;50.882;6.962;2023-02-01T07:27:54;24.00;;;4.85;;
34499;SDS011;20745;50.882;6.962;2023-02-01T07:30:20;24.75;;;4.15;;
34499;SDS011;20745;50.882;6.962;2023-02-01T07:32:47;24.02;;;4.70;;
34499;SDS011;20745;50.882;6.962;2023-02-01T07:35:14;32.38;;;4.40;;
34499;SDS011;20745;50.882;6.962;2023-02-01T07:37:41;33.38;;;4.57;;
34499;SDS011;20745;50.882;6.962;2023-02-01T07:40:07;28.67;;;4.35;;
34499;SDS011;20745;50.882;6.962;2023-02-01T07:42:34;29.05;;;4.93;;
34499;SDS011;20745;50.882;6.962;2023-02-01T07:45:01;26.38;;;5.00;;
34499;SDS011;20745;50.882;6.962;2023-02-01T07:47:46;29.08;;;4.35;;
34499;SDS011;20745;50.882;6.962;2023-02-01T07:50:12;28.58;;;4.43;;
34499;SDS011;20745;50.882;6.962;2023-02-01T07:52:39;30.50;;;4.50;;
34499;SDS011;20745;50.882;6.962;2023-02-01T07:55:06;25.42;;;4.15;;
34499;SDS011;20745;50.882;6.962;2023-02-01T07:57:33;26.02;;;4.68;;
34499;SDS011;20745;50.882;6.962;2023-02-01T08:00:00;31.77;;;5.25;;
34499;SDS011;20745;50.882;6.962;2023-02-01T08:02:45;29.70;;;4.07;;
34499;SDS011;20745;50.882;6.962;2023-02-01T08:05:12;30.50;;;4.10;;
34499;SDS011;20745;50.882;6.962;2023-02-01T08:07:38;28.95;;;4.65;;
34499;SDS011;20745;50.882;6.962;2023-02-01T08:10:05;33.33;;;4.55;;
34499;SDS011;20745;50.882;6.962;2023-02-01T08:12:37;24.70;;;4.53;;
34499;SDS011;20745;50.882;6.962;2023-02-01T08:15:03;31.80;;;5.20;;
34499;SDS011;20745;50.882;6.962;2023-02-01T08:17:30;23.75;;;5.30;;
34499;SDS011;20745;50.882;6.962;2023-02-01T08:19:57;24.80;;;5.00;;
34499;SDS011;20745;50.882;6.962;2023-02-01T08:22:23;31.15;;;5.18;;
34499;SDS011;20745;50.882;6.962;2023-02-01T08:24:50;27.45;;;5.55;;
34499;SDS011;20745;50.882;6.962;2023-02-01T08:27:17;29.15;;;4.95;;
34499;SDS011;20745;50.882;6.962;2023-02-01T08:29:44;28.17;;;4.40;;
34499;SDS011;20745;50.882;6.962;2023-02-01T08:32:10;27.77;;;4.85;;
34499;SDS011;20745;50.882;6.962;2023-02-01T08:34:37;22.83;;;5.03;;
34499;SDS011;20745;50.882;6.962;2023-02-01T08:37:03;27.58;;;5.00;;
34499;SDS011;20745;50.882;6.962;2023-02-01T08:39:30;30.88;;;5.18;;
34499;SDS011;20745;50.882;6.962;2023-02-01T08:41:56;23.50;;;4.03;;
34499;SDS011;20745;50.882;6.962;2023-02-01T08:44:41;29.83;;;4.72;;
34499;SDS011;20745;50.882;6.962;2023-02-01T08:47:08;30.85;;;5.22;;
34499;SDS011;20745;50.882;6.962;2023-02-01T08:49:34;32.15;;;5.55;;
34499;SDS011;20745;50.882;6.962;2023-02-01T08:52:01;26.80;;;4.07;;
34499;SDS011;20745;50.882;6.962;2023-02-01T08:54:35;28.10;;;5.13;;
34499;SDS011;20745;50.882;6.962;2023-02-01T08:57:02;28.50;;;4.65;;
34499;SDS011;20745;50.882;6.962;2023-02-01T08:59:30;26.10;;;4.13;;
34499;SDS011;20745;50.882;6.962;2023-02-01T09:01:56;22.35;;;4.20;;
34499;SDS011;20745;50.882;6.962;2023-02-01T09:04:23;29.80;;;4.53;;
34499;SDS011;20745;50.882;6.962;2023-02-01T09:06:49;26.67;;;5.47;;
34499;SDS011;20745;50.882;6.962;2023-02-01T09:09:16;23.05;;;3.97;;
34499;SDS011;20745;50.882;6.962;2023-02-01T09:11:43;23.13;;;4.38;;
34499;SDS011;20745;50.882;6.962;2023-02-01T09:14:09;23.35;;;3.90;;
34499;SDS011;20745;50.882;6.962;2023-02-01T09:16:36;24.05;;;4.70;;
34499;SDS011;20745;50.882;6.962;2023-02-01T09:19:02;28.48;;;4.68;;
34499;SDS011;20745;50.882;6.962;2023-02-01T09:21:49;22.50;;;4.30;;
34499;SDS011;20745;50.882;6.962;2023-02-01T09:24:15;31.98;;;5.22;;
34499;SDS011;20745;50.882;6.962;2023-02-01T09:26:42;28.60;;;5.25;;
34499;SDS011;20745;50.882;6.962;2023-02-01T09:29:08;26.05;;;3.83;;
34499;SDS011;20745;50.882;6.962;2023-02-01T09:31:38;32.10;;;4.68;;
34499;SDS011;20745;50.882;6.962;2023-02-01T09:34:15;25.02;;;4.28;;
34499;SDS011;20745;50.882;6.962;2023-02-01T09:36:41;24.77;;;4.65;;
34499;SDS011;20745;50.882;6.962;2023-02-01T09:39:08;29.13;;;4.97;;
34499;SDS011;20745;50.882;6.962;2023-02-01T09:47:12;32.90;;;4.82;;
34499;SDS011;20745;50.882;6.962;2023-02-01T09:55:32;30.50;;;4.65;;
34499;SDS011;20745;50.882;6.962;2023-02-01T09:58:06;26.88;;;4.32;;
34499;SDS011;20745;50.882;6.962;2023-02-01T10:00:37;28.02;;;5.22;;
34499;SDS011;20745;50.882;6.962;2023-02-01T10:03:05;24.92;;;4.45;;
34499;SDS011;20745;50.882;6.962;2023-02-01T10:16:55;22.45;;;4.63;;
34499;SDS011;20745;50.882;6.962;2023-02-01T10:22:10;23.00;;;4.13;;
34499;SDS011;20745;50.882;6.962;2023-02-01T10:25:32;22.92;;;4.15;;
34499;SDS011;20745;50.882;6.962;2023-02-01T10:28:08;22.90;;;3.67;;
34499;SDS011;20745;50.882;6.962;2023-02-01T10:30:45;22.55;;;3.97;;
34499;SDS011;20745;50.882;6.962;2023-02-01T10:35:45;23.73;;;3.58;;
34499;SDS011;20745;50.882;6.962;2023-02-01T10:38:17;25.58;;;4.38;;
34499;SDS011;20745;50.882;6.962;2023-02-01T10:40:53;25.17;;;3.50;;
34499;SDS011;20745;50.882;6.962;2023-02-01T10:43:23;30.00;;;4.95;;
34499;SDS011;20745;50.882;6.962;2023-02-01T10:45:49;18.45;;;3.40;;
34499;SDS011;20745;50.882;6.962;2023-02-01T10:48:16;30.88;;;4.53;;
34499;SDS011;20745;50.882;6.962;2023-02-01T10:50:48;22.33;;;3.70;;
34499;SDS011;20745;50.882;6.962;2023-02-01T10:53:41;23.17;;;4.75;;
34499;SDS011;20745;50.882;6.962;2023-02-01T10:56:12;32.80;;;4.20;;
34499;SDS011;20745;50.882;6.962;2023-02-01T10:58:43;24.00;;;4.60;;
34499;SDS011;20745;50.882;6.962;2023-02-01T11:01:21;27.02;;;3.92;;
34499;SDS011;20745;50.882;6.962;2023-02-01T11:03:57;21.15;;;3.95;;
34499;SDS011;20745;50.882;6.962;2023-02-01T11:08:53;26.10;;;5.20;;
34499;SDS011;20745;50.882;6.962;2023-02-01T11:11:25;23.20;;;3.80;;
34499;SDS011;20745;50.882;6.962;2023-02-01T11:13:56;28.70;;;3.80;;
34499;SDS011;20745;50.882;6.962;2023-02-01T11:16:33;24.85;;;4.28;;
34499;SDS011;20745;50.882;6.962;2023-02-01T11:19:02;26.27;;;4.20;;
34499;SDS011;20745;50.882;6.962;2023-02-01T11:21:29;26.92;;;4.60;;
34499;SDS011;20745;50.882;6.962;2023-02-01T11:23:55;28.67;;;4.70;;
34499;SDS011;20745;50.882;6.962;2023-02-01T11:26:27;22.42;;;4.45;;
34499;SDS011;20745;50.882;6.962;2023-02-01T11:28:59;27.13;;;4.55;;
34499;SDS011;20745;50.882;6.962;2023-02-01T11:31:30;23.35;;;4.35;;
34499;SDS011;20745;50.882;6.962;2023-02-01T11:34:11;28.27;;;3.85;;
34499;SDS011;20745;50.882;6.962;2023-02-01T11:36:41;29.67;;;5.03;;
34499;SDS011;20745;50.882;6.962;2023-02-01T11:44:21;25.83;;;4.80;;
34499;SDS011;20745;50.882;6.962;2023-02-01T11:46:52;23.38;;;4.53;;
34499;SDS011;20745;50.882;6.962;2023-02-01T11:49:25;24.73;;;4.80;;
34499;SDS011;20745;50.882;6.962;2023-02-01T11:57:29;24.65;;;4.20;;
34499;SDS011;20745;50.882;6.962;2023-02-01T12:06:08;20.85;;;3.78;;
34499;SDS011;20745;50.882;6.962;2023-02-01T12:22:47;27.40;;;5.10;;
34499;SDS011;20745;50.882;6.962;2023-02-01T12:25:41;25.85;;;3.70;;
34499;SDS011;20745;50.882;6.962;2023-02-01T12:28:38;19.08;;;4.28;;
34499;SDS011;20745;50.882;6.962;2023-02-01T12:39:41;22.15;;;3.58;;
34499;SDS011;20745;50.882;6.962;2023-02-01T12:42:24;22.13;;;3.47;;
34499;SDS011;20745;50.882;6.962;2023-02-01T12:45:11;25.63;;;5.28;;
34499;SDS011;20745;50.882;6.962;2023-02-01T12:47:47;21.52;;;3.60;;
34499;SDS011;20745;50.882;6.962;2023-02-01T12:50:23;20.60;;;3.63;;
34499;SDS011;20745;50.882;6.962;2023-02-01T12:52:55;27.13;;;4.40;;
34499;SDS011;20745;50.882;6.962;2023-02-01T12:58:20;18.53;;;3.37;;
34499;SDS011;20745;50.882;6.962;2023-02-01T13:00:52;22.20;;;4.00;;
34499;SDS011;20745;50.882;6.962;2023-02-01T13:06:20;28.08;;;4.07;;
34499;SDS011;20745;50.882;6.962;2023-02-01T13:08:56;19.98;;;4.05;;
34499;SDS011;20745;50.882;6.962;2023-02-01T13:11:26;21.60;;;3.65;;
34499;SDS011;20745;50.882;6.962;2023-02-01T13:14:03;27.00;;;4.15;;
34499;SDS011;20745;50.882;6.962;2023-02-01T13:16:47;19.98;;;3.67;;
34499;SDS011;20745;50.882;6.962;2023-02-01T13:22:10;22.35;;;3.55;;
34499;SDS011;20745;50.882;6.962;2023-02-01T13:27:26;27.02;;;4.30;;
34499;SDS011;20745;50.882;6.962;2023-02-01T13:29:57;28.50;;;4.32;;
34499;SDS011;20745;50.882;6.962;2023-02-01T13:35:41;29.95;;;4.80;;
34499;SDS011;20745;50.882;6.962;2023-02-01T13:40:39;21.17;;;3.83;;
34499;SDS011;20745;50.882;6.962;2023-02-01T13:43:12;31.38;;;4.82;;
34499;SDS011;20745;50.882;6.962;2023-02-01T13:45:50;28.10;;;4.20;;
34499;SDS011;20745;50.882;6.962;2023-02-01T13:48:28;25.17;;;4.63;;
34499;SDS011;20745;50.882;6.962;2023-02-01T13:51:01;21.10;;;3.72;;
34499;SDS011;20745;50.882;6.962;2023-02-01T13:53:32;19.90;;;3.88;;
34499;SDS011;20745;50.882;6.962;2023-02-01T13:56:16;23.98;;;4.30;;
34499;SDS011;20745;50.882;6.962;2023-02-01T13:58:45;24.95;;;4.78;;
34499;SDS011;20745;50.882;6.962;2023-02-01T14:03:48;22.02;;;3.65;;
34499;SDS011;20745;50.882;6.962;2023-02-01T14:21:55;19.92;;;3.70;;
34499;SDS011;20745;50.882;6.962;2023-02-01T14:24:27;21.15;;;2.92;;
34499;SDS011;20745;50.882;6.962;2023-02-01T14:26:57;23.55;;;3.63;;
34499;SDS011;20745;50.882;6.962;2023-02-01T14:29:34;18.48;;;2.70;;
34499;SDS011;20745;50.882;6.962;2023-02-01T14:32:19;25.40;;;3.47;;
34499;SDS011;20745;50.882;6.962;2023-02-01T14:34:49;20.13;;;2.83;;
34499;SDS011;20745;50.882;6.962;2023-02-01T14:47:55;16.38;;;2.90;;
34499;SDS011;20745;50.882;6.962;2023-02-01T14:53:14;17.85;;;3.75;;
34499;SDS011;20745;50.882;6.962;2023-02-01T14:56:30;21.98;;;3.63;;
34499;SDS011;20745;50.882;6.962;2023-02-01T14:58:41;23.00;;;3.33;;
34499;SDS011;20745;50.882;6.962;2023-02-01T15:01:27;17.88;;;3.28;;
34499;SDS011;20745;50.882;6.962;2023-02-01T15:04:09;23.45;;;3.83;;
34499;SDS011;20745;50.882;6.962;2023-02-01T15:09:25;21.83;;;3.15;;
34499;SDS011;20745;50.882;6.962;2023-02-01T15:14:47;17.85;;;3.20;;
34499;SDS011;20745;50.882;6.962;2023-02-01T15:17:34;21.52;;;2.90;;
34499;SDS011;20745;50.882;6.962;2023-02-01T15:20:03;24.98;;;4.10;;
34499;SDS011;20745;50.882;6.962;2023-02-01T15:22:38;18.23;;;3.13;;
34499;SDS011;20745;50.882;6.962;2023-02-01T15:25:05;18.60;;;3.35;;
34499;SDS011;20745;50.882;6.962;2023-02-01T15:27:44;23.40;;;3.45;;
34499;SDS011;20745;50.882;6.962;2023-02-01T15:30:17;18.75;;;3.38;;
34499;SDS011;20745;50.882;6.962;2023-02-01T15:32:46;19.33;;;3.15;;
34499;SDS011;20745;50.882;6.962;2023-02-01T15:35:33;23.17;;;3.50;;
34499;SDS011;20745;50.882;6.962;2023-02-01T15:40:56;20.90;;;3.20;;
34499;SDS011;20745;50.882;6.962;2023-02-01T15:43:24;22.92;;;3.05;;
34499;SDS011;20745;50.882;6.962;2023-02-01T15:45:57;20.42;;;2.90;;
34499;SDS011;20745;50.882;6.962;2023-02-01T15:48:32;21.63;;;3.40;;
34499;SDS011;20745;50.882;6.962;2023-02-01T15:51:04;21.33;;;3.22;;
34499;SDS011;20745;50.882;6.962;2023-02-01T15:53:31;24.77;;;3.65;;
34499;SDS011;20745;50.882;6.962;2023-02-01T15:55:59;17.77;;;2.83;;
34499;SDS011;20745;50.882;6.962;2023-02-01T15:58:29;22.58;;;3.05;;
34499;SDS011;20745;50.882;6.962;2023-02-01T16:00:58;21.90;;;2.97;;
34499;SDS011;20745;50.882;6.962;2023-02-01T16:03:35;20.98;;;3.00;;
34499;SDS011;20745;50.882;6.962;2023-02-01T16:06:31;25.52;;;3.10;;
34499;SDS011;20745;50.882;6.962;2023-02-01T16:09:02;20.17;;;3.38;;
34499;SDS011;20745;50.882;6.962;2023-02-01T16:11:40;18.08;;;2.92;;
34499;SDS011;20745;50.882;6.962;2023-02-01T16:14:12;17.23;;;3.05;;
34499;SDS011;20745;50.882;6.962;2023-02-01T16:16:39;17.58;;;3.10;;
34499;SDS011;20745;50.882;6.962;2023-02-01T16:19:06;24.27;;;3.88;;
34499;SDS011;20745;50.882;6.962;2023-02-01T16:21:32;18.88;;;3.20;;
34499;SDS011;20745;50.882;6.962;2023-02-01T16:23:59;22.17;;;3.47;;
34499;SDS011;20745;50.882;6.962;2023-02-01T16:26:33;18.50;;;2.92;;
34499;SDS011;20745;50.882;6.962;2023-02-01T16:29:00;23.45;;;3.83;;
34499;SDS011;20745;50.882;6.962;2023-02-01T16:31:38;20.70;;;3.40;;
34499;SDS011;20745;50.882;6.962;2023-02-01T16:34:06;24.00;;;3.25;;
34499;SDS011;20745;50.882;6.962;2023-02-01T16:36:39;23.17;;;3.60;;
34499;SDS011;20745;50.882;6.962;2023-02-01T16:39:08;21.45;;;3.30;;
34499;SDS011;20745;50.882;6.962;2023-02-01T16:41:37;23.38;;;3.85;;
34499;SDS011;20745;50.882;6.962;2023-02-01T16:44:05;23.15;;;3.55;;
34499;SDS011;20745;50.882;6.962;2023-02-01T16:46:34;18.65;;;3.30;;
34499;SDS011;20745;50.882;6.962;2023-02-01T16:49:05;30.98;;;3.88;;
34499;SDS011;20745;50.882;6.962;2023-02-01T16:51:32;21.30;;;3.53;;
34499;SDS011;20745;50.882;6.962;2023-02-01T16:53:59;25.48;;;4.03;;
34499;SDS011;20745;50.882;6.962;2023-02-01T16:56:31;23.63;;;3.78;;
34499;SDS011;20745;50.882;6.962;2023-02-01T16:58:59;27.55;;;4.22;;
34499;SDS011;20745;50.882;6.962;2023-02-01T17:01:26;20.77;;;4.15;;
34499;SDS011;20745;50.882;6.962;2023-02-01T17:03:52;25.52;;;3.92;;
34499;SDS011;20745;50.882;6.962;2023-02-01T17:06:20;24.00;;;3.50;;
34499;SDS011;20745;50.882;6.962;2023-02-01T17:08:52;21.58;;;3.63;;
34499;SDS011;20745;50.882;6.962;2023-02-01T17:11:20;24.15;;;4.03;;
34499;SDS011;20745;50.882;6.962;2023-02-01T17:13:47;29.92;;;3.90;;
34499;SDS011;20745;50.882;6.962;2023-02-01T17:21:10;21.65;;;3.63;;
34499;SDS011;20745;50.882;6.962;2023-02-01T17:23:37;24.00;;;4.22;;
34499;SDS011;20745;50.882;6.962;2023-02-01T17:26:03;22.33;;;3.88;;
34499;SDS011;20745;50.882;6.962;2023-02-01T17:28:31;24.70;;;3.58;;
34499;SDS011;20745;50.882;6.962;2023-02-01T17:30:57;24.20;;;4.35;;
34499;SDS011;20745;50.882;6.962;2023-02-01T17:33:26;22.23;;;3.78;;
34499;SDS011;20745;50.882;6.962;2023-02-01T17:36:02;20.75;;;3.72;;
34499;SDS011;20745;50.882;6.962;2023-02-01T17:38:31;25.40;;;3.40;;
34499;SDS011;20745;50.882;6.962;2023-02-01T17:40:59;23.00;;;4.75;;
34499;SDS011;20745;50.882;6.962;2023-02-01T17:43:26;20.20;;;4.30;;
34499;SDS011;20745;50.882;6.962;2023-02-01T17:45:57;23.00;;;3.95;;